Time;durP1;ratioP1;P1;durP2;ratioP2;P2;SDS_P1;SDS_P2;PMS_P1;PMS_P2;Temp;Humidity;BMP_temperature;BMP_pressure;BME280_temperature;BME280_humidity;BME280_pressure;Samples;Min_cycle;Max_cycle;Signal;HPM_P1;HPM_P2
2022/04/16 00:00:59;;;;;;;;;;;;;;;6.92;89.87;96955.46;107655;1271;43958;-76
2022/04/16 00:03:26;;;;;;;;;;;;;;;6.90;89.82;96953.65;107589;1271;41168;-76
2022/04/16 00:05:55;;;;;;;;;;;;;;;6.89;90.20;96952.58;107579;1272;43053;-76
2022/04/16 00:08:25;;;;;;;;;;;;;;;6.86;90.20;96954.23;107690;1271;47021;-76
2022/04/16 00:10:53;;;;;;;;;;;;;;;6.84;90.45;96959.84;107613;1271;44135;-76
2022/04/16 00:13:22;;;;;;;;;;;;;;;6.83;90.36;96961.98;107749;1271;36391;-76
2022/04/16 00:15:52;;;;;;;;;;;;;;;6.84;90.17;96964.20;107515;1271;48915;-76
2022/04/16 00:18:20;;;;;;;;;;;;;;;6.83;90.40;96956.02;107469;1272;34471;-76
2022/04/16 00:20:49;;;;;;;;;;;;;;;6.82;90.38;96960.92;107443;1272;56299;-76
2022/04/16 00:23:19;;;;;;;;;;;;;;;6.82;90.09;96964.61;107521;1273;50634;-76
2022/04/16 00:25:46;;;;;;;;;;;;;;;6.81;90.15;96962.49;107584;1271;37229;-76
2022/04/16 00:28:13;;;;;;;;;;;;;;;6.80;90.17;96959.64;107438;1271;61320;-76
2022/04/16 00:30:43;;;;;;;;;;;;;;;6.78;90.23;96956.46;107641;1271;37704;-76
2022/04/16 00:33:14;;;;;;;;;;;;;;;6.77;90.23;96959.45;107616;1271;33335;-76
2022/04/16 00:35:42;;;;;;;;;;;;;;;6.77;90.20;96957.92;107663;1270;35139;-76
2022/04/16 00:38:11;;;;;;;;;;;;;;;6.74;90.15;96960.08;107581;1270;47401;-76
2022/04/16 00:40:39;;;;;;;;;;;;;;;6.75;89.93;96962.10;105962;1272;2026871;-76
2022/04/16 00:43:06;;;;;;;;;;;;;;;6.74;89.80;96967.66;107421;1272;49347;-76
2022/04/16 00:45:34;;;;;;;;;;;;;;;6.74;90.07;96963.92;107480;1271;32330;-76
2022/04/16 00:48:04;;;;;;;;;;;;;;;6.74;89.83;96965.97;107454;1271;60020;-76
2022/04/16 00:50:32;;;;;;;;;;;;;;;6.75;89.81;96970.04;107426;1273;44733;-76
2022/04/16 00:53:00;;;;;;;;;;;;;;;6.75;89.71;96970.11;107466;1272;40800;-76
2022/04/16 00:55:29;;;;;;;;;;;;;;;6.78;89.39;96970.84;107459;1272;53197;-76
2022/04/16 00:57:58;;;;;;;;;;;;;;;6.81;89.38;96969.98;107574;1271;40665;-77
2022/04/16 01:00:25;;;;;;;;;;;;;;;6.81;89.46;96968.08;107425;1273;50643;-76
2022/04/16 01:02:55;;;;;;;;;;;;;;;6.80;89.42;96974.49;107438;1272;53037;-76
2022/04/16 01:05:22;;;;;;;;;;;;;;;6.78;89.39;96975.00;107436;1271;43567;-76
2022/04/16 01:07:53;;;;;;;;;;;;;;;6.76;89.58;96978.09;107477;1273;49449;-76
2022/04/16 01:10:26;;;;;;;;;;;;;;;6.74;89.70;96977.35;107528;1272;34957;-76
2022/04/16 01:12:56;;;;;;;;;;;;;;;6.71;89.81;96974.52;107456;1271;40601;-76
2022/04/16 01:15:24;;;;;;;;;;;;;;;6.65;90.27;96976.36;107468;1271;50120;-77
2022/04/16 01:17:54;;;;;;;;;;;;;;;6.61;90.23;96978.20;107520;1272;30201;-76
2022/04/16 01:20:22;;;;;;;;;;;;;;;6.61;90.48;96980.19;107503;1272;37242;-76
2022/04/16 01:22:50;;;;;;;;;;;;;;;6.59;90.60;96977.37;107469;1273;49657;-76
2022/04/16 01:25:19;;;;;;;;;;;;;;;6.57;90.33;96983.62;107556;1271;49129;-75
2022/04/16 01:27:46;;;;;;;;;;;;;;;6.54;90.59;96980.89;107453;1272;32519;-77
2022/04/16 01:30:14;;;;;;;;;;;;;;;6.53;90.44;96980.83;107465;1271;55150;-76
2022/04/16 01:32:42;;;;;;;;;;;;;;;6.54;90.78;96980.69;107462;1271;47281;-76
2022/04/16 01:35:11;;;;;;;;;;;;;;;6.52;90.89;96976.98;107490;1271;51089;-76
2022/04/16 01:37:38;;;;;;;;;;;;;;;6.50;91.20;96981.13;107597;1271;46947;-76
2022/04/16 01:40:10;;;;;;;;;;;;;;;6.48;91.46;96986.98;107540;1270;35374;-76
2022/04/16 01:42:38;;;;;;;;;;;;;;;6.48;91.45;96979.46;107521;1272;38342;-76
2022/04/16 01:45:06;;;;;;;;;;;;;;;6.47;91.84;96983.30;107525;1271;41163;-76
2022/04/16 01:47:36;;;;;;;;;;;;;;;6.46;91.65;96983.52;107491;1272;58865;-76
2022/04/16 01:50:06;;;;;;;;;;;;;;;6.48;91.52;96985.51;107491;1271;46376;-76
2022/04/16 01:52:36;;;;;;;;;;;;;;;6.51;91.44;96983.61;107476;1271;45031;-76
2022/04/16 01:55:03;;;;;;;;;;;;;;;6.53;91.27;96983.31;107510;1271;33125;-76
2022/04/16 01:57:33;;;;;;;;;;;;;;;6.58;91.43;96983.42;107546;1271;49897;-76
2022/04/16 02:00:01;;;;;;;;;;;;;;;6.60;91.52;96989.23;107470;1272;42737;-76
2022/04/16 02:02:28;;;;;;;;;;;;;;;6.60;91.33;96980.70;107421;1272;50900;-76
2022/04/16 02:04:58;;;;;;;;;;;;;;;6.60;91.30;96978.86;107434;1272;35564;-76
2022/04/16 02:07:26;;;;;;;;;;;;;;;6.62;91.38;96975.11;107468;1272;46889;-76
2022/04/16 02:09:53;;;;;;;;;;;;;;;6.61;91.22;96971.02;107421;1271;35397;-76
2022/04/16 02:12:21;;;;;;;;;;;;;;;6.58;91.21;96979.73;107553;1270;53876;-76
2022/04/16 02:14:49;;;;;;;;;;;;;;;6.60;91.21;96973.64;107529;1270;39293;-76
2022/04/16 02:17:16;;;;;;;;;;;;;;;6.61;91.18;96979.66;107478;1271;44380;-76
2022/04/16 02:19:44;;;;;;;;;;;;;;;6.62;91.23;96972.95;107441;1272;77534;-76
2022/04/16 02:22:11;;;;;;;;;;;;;;;6.63;91.19;96971.76;107516;1272;41708;-76
2022/04/16 02:24:39;;;;;;;;;;;;;;;6.66;91.20;96976.89;107477;1272;57866;-76
2022/04/16 02:27:08;;;;;;;;;;;;;;;6.67;91.13;96976.02;107510;1272;36026;-76
2022/04/16 02:29:36;;;;;;;;;;;;;;;6.65;91.26;96976.04;107397;1272;40355;-76
2022/04/16 02:32:03;;;;;;;;;;;;;;;6.62;91.35;96975.69;107492;1272;35709;-76
2022/04/16 02:34:35;;;;;;;;;;;;;;;6.65;91.27;96976.78;107484;1271;35185;-76
2022/04/16 02:37:02;;;;;;;;;;;;;;;6.63;91.48;96976.77;107497;1273;39991;-76
2022/04/16 02:39:29;;;;;;;;;;;;;;;6.61;91.27;96982.29;107477;1270;41847;-76
2022/04/16 02:41:58;;;;;;;;;;;;;;;6.61;91.22;96981.31;107467;1271;43932;-76
2022/04/16 02:47:13;;;;;;;;;;;;;;;6.60;91.20;96986.02;107347;1271;46072;-76
2022/04/16 02:49:43;;;;;;;;;;;;;;;6.61;91.11;96985.81;107550;1271;31074;-76
2022/04/16 02:52:11;;;;;;;;;;;;;;;6.55;91.19;96987.23;107509;1272;41048;-76
2022/04/16 02:54:38;;;;;;;;;;;;;;;6.45;90.87;96990.99;107588;1272;39523;-76
2022/04/16 02:57:08;;;;;;;;;;;;;;;6.37;90.96;96991.31;107596;1271;47428;-76
2022/04/16 02:59:37;;;;;;;;;;;;;;;6.30;90.95;96998.45;107446;1271;52817;-76
2022/04/16 03:02:05;;;;;;;;;;;;;;;6.22;90.99;96997.79;107383;1272;55235;-76
2022/04/16 03:04:36;;;;;;;;;;;;;;;6.16;91.18;97002.09;107383;1271;41950;-76
2022/04/16 03:07:05;;;;;;;;;;;;;;;6.11;91.05;96999.13;107634;1273;49560;-76
2022/04/16 03:09:32;;;;;;;;;;;;;;;6.06;91.36;97006.36;107518;1271;38245;-76
2022/04/16 03:12:04;;;;;;;;;;;;;;;6.07;91.30;97010.23;107538;1273;32946;-76
2022/04/16 03:17:35;;;;;;;;;;;;;;;6.07;91.28;97013.86;107491;1273;47123;-76
2022/04/16 03:20:04;;;;;;;;;;;;;;;6.06;91.24;97019.79;107440;1272;42129;-76
2022/04/16 03:22:32;;;;;;;;;;;;;;;6.01;91.44;97021.27;107528;1271;56940;-76
2022/04/16 03:25:02;;;;;;;;;;;;;;;5.98;91.57;97020.34;107613;1271;51035;-76
2022/04/16 03:27:30;;;;;;;;;;;;;;;5.96;91.41;97020.69;107454;1271;29573;-76
2022/04/16 03:29:57;;;;;;;;;;;;;;;5.93;91.56;97024.80;107486;1271;51114;-76
2022/04/16 03:32:25;;;;;;;;;;;;;;;5.91;91.52;97035.67;107475;1272;34868;-76
2022/04/16 03:34:53;;;;;;;;;;;;;;;5.90;91.56;97039.88;107455;1271;38522;-76
2022/04/16 03:37:20;;;;;;;;;;;;;;;5.91;91.46;97038.33;107464;1271;35418;-76
2022/04/16 03:39:49;;;;;;;;;;;;;;;5.91;91.38;97043.71;107523;1271;38354;-76
2022/04/16 03:42:19;;;;;;;;;;;;;;;5.91;91.35;97046.23;107510;1271;37903;-76
2022/04/16 03:44:47;;;;;;;;;;;;;;;5.87;91.09;97051.14;107411;1271;46051;-76
2022/04/16 03:47:14;;;;;;;;;;;;;;;5.79;90.71;97052.42;107480;1271;49413;-76
2022/04/16 03:49:43;;;;;;;;;;;;;;;5.73;90.51;97057.56;107459;1271;58976;-76
2022/04/16 03:52:14;;;;;;;;;;;;;;;5.68;90.43;97059.05;107533;1271;34221;-76
2022/04/16 04:00:15;;;;;;;;;;;;;;;5.48;90.02;97072.88;107468;1273;46035;-76
2022/04/16 04:02:42;;;;;;;;;;;;;;;5.40;89.92;97076.56;107499;1271;41827;-76
2022/04/16 04:05:10;;;;;;;;;;;;;;;5.37;89.96;97077.92;107518;1273;53338;-76
2022/04/16 04:07:41;;;;;;;;;;;;;;;5.35;90.14;97078.52;107555;1273;36119;-75
2022/04/16 04:10:10;;;;;;;;;;;;;;;5.30;89.93;97085.09;107527;1271;46154;-76
2022/04/16 04:12:37;;;;;;;;;;;;;;;5.26;89.80;97093.42;107541;1271;58964;-76
2022/04/16 04:15:07;;;;;;;;;;;;;;;5.20;89.71;97095.14;107478;1273;49408;-76
2022/04/16 04:17:35;;;;;;;;;;;;;;;5.16;89.68;97101.73;107567;1271;40938;-76
2022/04/16 04:20:02;;;;;;;;;;;;;;;5.16;90.11;97101.36;107439;1272;33838;-76
2022/04/16 04:22:32;;;;;;;;;;;;;;;5.14;89.74;97107.58;107539;1272;46499;-75
2022/04/16 04:24:59;;;;;;;;;;;;;;;5.11;89.57;97111.41;107392;1271;49488;-75
2022/04/16 04:27:26;;;;;;;;;;;;;;;5.12;89.69;97112.85;107325;1272;61841;-76
2022/04/16 04:29:54;;;;;;;;;;;;;;;5.09;89.30;97115.70;107387;1271;42914;-76
2022/04/16 04:32:22;;;;;;;;;;;;;;;5.08;89.21;97120.70;107381;1271;40106;-76
2022/04/16 04:34:49;;;;;;;;;;;;;;;5.02;89.06;97117.95;107382;1271;36876;-76
2022/04/16 04:37:17;;;;;;;;;;;;;;;4.99;88.91;97123.77;107421;1272;31684;-76
2022/04/16 04:39:44;;;;;;;;;;;;;;;4.99;89.15;97128.17;107424;1271;40787;-76
2022/04/16 04:42:12;;;;;;;;;;;;;;;4.95;88.98;97129.25;107519;1273;32095;-75
2022/04/16 04:44:43;;;;;;;;;;;;;;;4.93;88.98;97131.83;107425;1271;35810;-76
2022/04/16 04:47:11;;;;;;;;;;;;;;;4.92;89.10;97130.70;107360;1272;53258;-76
2022/04/16 04:49:39;;;;;;;;;;;;;;;4.89;88.97;97133.92;107597;1271;42253;-75
2022/04/16 04:52:08;;;;;;;;;;;;;;;4.82;88.68;97137.58;107435;1273;37389;-76
2022/04/16 04:54:36;;;;;;;;;;;;;;;4.82;88.91;97141.81;107352;1273;50891;-76
2022/04/16 04:57:04;;;;;;;;;;;;;;;4.85;88.83;97141.98;107367;1271;40942;-76
2022/04/16 04:59:35;;;;;;;;;;;;;;;4.83;88.79;97145.42;107394;1274;45379;-76
2022/04/16 05:02:05;;;;;;;;;;;;;;;4.84;88.88;97145.48;107390;1271;45562;-76
2022/04/16 05:04:32;;;;;;;;;;;;;;;4.87;89.13;97147.45;107377;1271;47170;-76
2022/04/16 05:07:03;;;;;;;;;;;;;;;4.89;89.08;97148.02;107379;1271;46812;-76
2022/04/16 05:09:31;;;;;;;;;;;;;;;4.85;88.78;97154.60;107340;1271;51205;-76
2022/04/16 05:11:58;;;;;;;;;;;;;;;4.83;88.87;97158.77;107368;1273;39390;-76
2022/04/16 05:14:32;;;;;;;;;;;;;;;4.78;88.94;97159.48;107415;1272;50723;-76
2022/04/16 05:17:00;;;;;;;;;;;;;;;4.76;88.96;97158.86;107424;1272;49947;-76
2022/04/16 05:19:27;;;;;;;;;;;;;;;4.71;88.84;97162.75;107354;1272;37424;-76
2022/04/16 05:21:57;;;;;;;;;;;;;;;4.68;88.95;97166.77;107372;1272;49471;-76
2022/04/16 05:24:26;;;;;;;;;;;;;;;4.66;88.89;97173.63;107355;1272;54189;-76
2022/04/16 05:26:54;;;;;;;;;;;;;;;4.65;88.88;97177.11;107356;1271;37184;-76
2022/04/16 05:29:22;;;;;;;;;;;;;;;4.65;88.73;97187.26;107438;1273;44282;-76
2022/04/16 05:31:50;;;;;;;;;;;;;;;4.66;88.86;97188.81;107660;1271;43379;-76
2022/04/16 05:34:20;;;;;;;;;;;;;;;4.67;88.92;97193.92;107410;1271;40788;-76
2022/04/16 05:36:50;;;;;;;;;;;;;;;4.67;88.85;97190.86;107586;1271;33999;-76
2022/04/16 05:39:18;;;;;;;;;;;;;;;4.63;88.78;97200.04;107518;1271;35061;-76
2022/04/16 05:41:45;;;;;;;;;;;;;;;4.60;88.85;97198.35;107449;1271;44122;-76
2022/04/16 05:44:14;;;;;;;;;;;;;;;4.55;88.54;97204.85;107468;1271;33749;-76
2022/04/16 05:46:42;;;;;;;;;;;;;;;4.54;88.66;97210.54;107512;1271;40691;-76
2022/04/16 05:49:10;;;;;;;;;;;;;;;4.53;88.67;97213.98;107496;1271;37494;-75
2022/04/16 05:51:37;;;;;;;;;;;;;;;4.53;88.52;97216.04;107443;1272;30969;-76
2022/04/16 05:54:05;;;;;;;;;;;;;;;4.56;88.63;97225.44;107479;1271;35281;-75
2022/04/16 05:56:35;;;;;;;;;;;;;;;4.54;88.44;97222.73;107473;1271;41477;-76
2022/04/16 05:59:02;;;;;;;;;;;;;;;4.47;88.19;97235.56;107587;1271;51195;-76
2022/04/16 06:01:32;;;;;;;;;;;;;;;4.45;88.17;97240.49;107476;1271;39240;-76
2022/04/16 06:03:59;;;;;;;;;;;;;;;4.42;87.98;97238.17;107498;1272;38963;-76
2022/04/16 06:06:27;;;;;;;;;;;;;;;4.46;88.18;97242.30;107457;1271;45590;-76
2022/04/16 06:08:54;;;;;;;;;;;;;;;4.49;88.45;97239.34;107534;1271;55590;-76
2022/04/16 06:11:25;;;;;;;;;;;;;;;4.52;88.37;97244.09;107497;1271;51744;-76
2022/04/16 06:13:53;;;;;;;;;;;;;;;4.56;88.57;97244.98;107516;1271;47565;-76
2022/04/16 06:16:22;;;;;;;;;;;;;;;4.61;88.32;97246.89;107477;1271;44213;-76
2022/04/16 06:18:50;;;;;;;;;;;;;;;4.61;88.10;97247.45;107464;1271;43781;-76
2022/04/16 06:21:17;;;;;;;;;;;;;;;4.60;87.94;97252.80;107449;1274;43789;-76
2022/04/16 06:23:48;;;;;;;;;;;;;;;4.66;87.89;97252.20;107565;1272;33716;-75
2022/04/16 06:26:16;;;;;;;;;;;;;;;4.73;87.80;97252.48;107463;1270;48951;-76
2022/04/16 06:28:43;;;;;;;;;;;;;;;4.73;87.35;97252.45;107412;1271;42139;-76
2022/04/16 06:31:12;;;;;;;;;;;;;;;4.75;86.93;97255.02;107540;1271;35956;-76
2022/04/16 06:33:39;;;;;;;;;;;;;;;4.72;86.78;97254.32;107499;1271;33945;-76
2022/04/16 06:36:07;;;;;;;;;;;;;;;4.74;86.94;97257.20;107432;1271;47324;-75
2022/04/16 06:38:35;;;;;;;;;;;;;;;4.77;87.13;97259.38;107433;1271;55971;-76
2022/04/16 06:41:03;;;;;;;;;;;;;;;4.81;87.45;97262.10;107428;1271;40168;-76
2022/04/16 06:43:31;;;;;;;;;;;;;;;4.86;87.97;97265.80;107502;1271;38521;-76
2022/04/16 06:46:03;;;;;;;;;;;;;;;4.90;87.92;97269.20;107438;1271;59749;-76
2022/04/16 06:48:32;;;;;;;;;;;;;;;4.90;87.84;97272.72;107497;1271;44444;-76
2022/04/16 06:51:02;;;;;;;;;;;;;;;4.91;87.78;97272.02;107479;1271;39225;-76
2022/04/16 06:53:30;;;;;;;;;;;;;;;4.96;88.07;97276.57;107415;1271;56343;-75
2022/04/16 06:56:00;;;;;;;;;;;;;;;5.02;87.93;97278.21;107319;1271;59830;-76
2022/04/16 06:58:31;;;;;;;;;;;;;;;5.04;87.71;97277.16;107343;1271;33266;-76
2022/04/16 07:00:59;;;;;;;;;;;;;;;5.01;87.54;97283.63;107415;1272;40623;-76
2022/04/16 07:03:29;;;;;;;;;;;;;;;5.01;87.12;97284.61;107320;1271;54086;-75
2022/04/16 07:05:56;;;;;;;;;;;;;;;5.00;86.99;97285.39;107368;1271;47899;-76
2022/04/16 07:08:23;;;;;;;;;;;;;;;5.06;87.15;97287.04;107366;1271;37559;-75
2022/04/16 07:10:51;;;;;;;;;;;;;;;5.04;86.76;97290.98;106237;1271;1505517;-75
2022/04/16 07:13:19;;;;;;;;;;;;;;;5.03;86.73;97290.55;107367;1271;39555;-75
2022/04/16 07:15:47;;;;;;;;;;;;;;;5.06;86.93;97293.52;107319;1271;47830;-76
2022/04/16 07:18:18;;;;;;;;;;;;;;;5.11;87.13;97299.06;107244;1271;120943;-76
2022/04/16 07:20:47;;;;;;;;;;;;;;;5.20;87.32;97294.34;107423;1271;39545;-76
2022/04/16 07:23:16;;;;;;;;;;;;;;;5.28;87.46;97294.41;107406;1271;32849;-76
2022/04/16 07:25:43;;;;;;;;;;;;;;;5.31;87.38;97296.38;107391;1271;40709;-76
2022/04/16 07:28:12;;;;;;;;;;;;;;;5.35;87.32;97298.27;107366;1271;51720;-76
2022/04/16 07:30:42;;;;;;;;;;;;;;;5.34;87.28;97299.40;107515;1271;57345;-76
2022/04/16 07:33:10;;;;;;;;;;;;;;;5.27;86.77;97302.60;108652;1271;48445;-76
2022/04/16 07:35:38;;;;;;;;;;;;;;;5.12;86.52;97309.68;107468;1271;30722;-76
2022/04/16 07:38:06;;;;;;;;;;;;;;;5.08;86.85;97315.64;107651;1271;42742;-76
2022/04/16 07:40:35;;;;;;;;;;;;;;;5.05;86.77;97316.60;107405;1271;33344;-76
2022/04/16 07:43:03;;;;;;;;;;;;;;;4.99;86.44;97318.40;107456;1271;52592;-77
2022/04/16 07:45:30;;;;;;;;;;;;;;;4.91;86.25;97319.44;107424;1271;55078;-76
2022/04/16 07:47:58;;;;;;;;;;;;;;;4.92;86.37;97327.96;107399;1271;35632;-76
2022/04/16 07:50:25;;;;;;;;;;;;;;;4.97;86.71;97326.04;107391;1274;43648;-76
2022/04/16 07:52:53;;;;;;;;;;;;;;;4.99;86.59;97332.50;107419;1271;39436;-76
2022/04/16 07:55:22;;;;;;;;;;;;;;;5.03;86.66;97338.38;107196;1271;342168;-76
2022/04/16 07:57:49;;;;;;;;;;;;;;;5.09;86.64;97336.17;107415;1271;48629;-76
2022/04/16 08:00:18;;;;;;;;;;;;;;;5.09;86.47;97336.95;107370;1271;53042;-76
2022/04/16 08:02:45;;;;;;;;;;;;;;;5.09;86.49;97340.53;107440;1271;46920;-76
2022/04/16 08:05:13;;;;;;;;;;;;;;;5.11;86.81;97345.47;107454;1271;45385;-76
2022/04/16 08:07:41;;;;;;;;;;;;;;;5.12;86.60;97344.90;107454;1274;31745;-76
2022/04/16 08:10:09;;;;;;;;;;;;;;;5.05;86.55;97348.61;107534;1271;33494;-76
2022/04/16 08:12:37;;;;;;;;;;;;;;;5.05;86.79;97347.44;107722;1271;29058;-75
2022/04/16 08:15:07;;;;;;;;;;;;;;;4.99;86.72;97350.25;107446;1271;37324;-77
2022/04/16 08:17:34;;;;;;;;;;;;;;;4.99;86.85;97353.89;107345;1271;54321;-77
2022/04/16 08:20:02;;;;;;;;;;;;;;;4.91;86.42;97353.63;107389;1271;47298;-77
2022/04/16 08:22:32;;;;;;;;;;;;;;;4.82;86.20;97358.21;107295;1271;46350;-76
2022/04/16 08:27:43;;;;;;;;;;;;;;;4.87;87.14;97358.55;107383;1272;47854;-76
2022/04/16 08:30:11;;;;;;;;;;;;;;;4.91;87.09;97362.08;107407;1271;38601;-77
2022/04/16 08:32:41;;;;;;;;;;;;;;;4.90;87.02;97367.88;107425;1271;35141;-76
2022/04/16 08:35:12;;;;;;;;;;;;;;;4.94;87.14;97365.74;107453;1271;41369;-76
2022/04/16 08:37:40;;;;;;;;;;;;;;;4.98;87.34;97366.11;107479;1271;49183;-76
2022/04/16 08:40:12;;;;;;;;;;;;;;;5.01;87.28;97369.29;107450;1271;33242;-76
2022/04/16 08:42:40;;;;;;;;;;;;;;;5.04;87.60;97370.78;107479;1271;42610;-76
2022/04/16 08:45:10;;;;;;;;;;;;;;;5.00;87.52;97374.25;107434;1271;35045;-76
2022/04/16 08:47:44;;;;;;;;;;;;;;;4.91;87.11;97374.69;107401;1271;49730;-76
2022/04/16 08:50:14;;;;;;;;;;;;;;;4.88;87.36;97385.08;107375;1273;37698;-75
2022/04/16 08:52:41;;;;;;;;;;;;;;;4.93;87.69;97384.61;107408;1271;52885;-76
2022/04/16 08:55:10;;;;;;;;;;;;;;;4.94;87.35;97386.71;107380;1271;41540;-75
2022/04/16 08:57:41;;;;;;;;;;;;;;;4.85;86.72;97387.31;107479;1271;40363;-75
2022/04/16 09:00:13;;;;;;;;;;;;;;;4.80;86.76;97391.23;107457;1271;32094;-75
2022/04/16 09:02:50;;;;;;;;;;;;;;;4.86;87.32;97394.69;107426;1272;34782;-75
2022/04/16 09:05:21;;;;;;;;;;;;;;;4.87;87.50;97396.09;107276;1271;44681;-74
2022/04/16 09:07:49;;;;;;;;;;;;;;;4.84;87.48;97395.61;107394;1271;56348;-76
2022/04/16 09:10:19;;;;;;;;;;;;;;;4.72;86.94;97395.20;107440;1271;42834;-76
2022/04/16 09:12:50;;;;;;;;;;;;;;;4.62;86.99;97402.86;107474;1271;44140;-76
2022/04/16 09:15:18;;;;;;;;;;;;;;;4.56;87.19;97404.96;107360;1271;48271;-76
2022/04/16 09:17:55;;;;;;;;;;;;;;;4.54;87.27;97409.89;107257;1271;60394;-75
2022/04/16 09:20:30;;;;;;;;;;;;;;;4.44;87.20;97407.92;107386;1271;44617;-76
2022/04/16 09:22:58;;;;;;;;;;;;;;;4.35;87.29;97415.65;107278;1271;50060;-76
2022/04/16 09:25:28;;;;;;;;;;;;;;;4.34;87.61;97414.23;107260;1271;48148;-76
2022/04/16 09:27:59;;;;;;;;;;;;;;;4.33;87.68;97417.61;107327;1271;39810;-76
2022/04/16 09:30:29;;;;;;;;;;;;;;;4.30;87.66;97416.92;107455;1271;41394;-76
2022/04/16 09:32:57;;;;;;;;;;;;;;;4.29;87.64;97420.16;107413;1271;41435;-75
2022/04/16 09:35:32;;;;;;;;;;;;;;;4.30;87.89;97415.06;107473;1271;42307;-75
2022/04/16 09:38:00;;;;;;;;;;;;;;;4.28;87.75;97423.45;107436;1271;40681;-75
2022/04/16 09:40:30;;;;;;;;;;;;;;;4.25;87.95;97424.33;107391;1271;50811;-75
2022/04/16 09:43:00;;;;;;;;;;;;;;;4.24;88.01;97430.56;107288;1271;56573;-75
2022/04/16 09:45:29;;;;;;;;;;;;;;;4.22;88.00;97430.00;107309;1271;54912;-75
2022/04/16 09:47:56;;;;;;;;;;;;;;;4.22;88.13;97433.80;107402;1271;40045;-75
2022/04/16 09:50:26;;;;;;;;;;;;;;;4.28;88.38;97434.11;107350;1271;53377;-75
2022/04/16 09:52:54;;;;;;;;;;;;;;;4.29;88.49;97433.61;107638;1271;49104;-75
2022/04/16 09:55:23;;;;;;;;;;;;;;;4.28;88.28;97439.36;107391;1271;48883;-75
2022/04/16 09:57:54;;;;;;;;;;;;;;;4.25;88.38;97438.98;107488;1271;46562;-75
2022/04/16 10:00:24;;;;;;;;;;;;;;;4.22;88.46;97436.62;107366;1271;78388;-75
2022/04/16 10:02:53;;;;;;;;;;;;;;;4.17;88.22;97443.65;107456;1273;36243;-76
2022/04/16 10:05:22;;;;;;;;;;;;;;;4.12;88.35;97446.73;107688;1271;41276;-75
2022/04/16 10:07:52;;;;;;;;;;;;;;;4.13;88.60;97449.63;107486;1271;49827;-75
2022/04/16 10:10:25;;;;;;;;;;;;;;;4.18;88.74;97453.65;107459;1271;41290;-75
2022/04/16 10:13:03;;;;;;;;;;;;;;;4.19;88.79;97456.15;107407;1271;38835;-75
2022/04/16 10:15:36;;;;;;;;;;;;;;;4.18;88.89;97456.28;107388;1271;32204;-75
2022/04/16 10:18:03;;;;;;;;;;;;;;;4.20;88.69;97459.73;107320;1271;53078;-76
2022/04/16 10:20:34;;;;;;;;;;;;;;;4.20;88.72;97460.58;107386;1271;53930;-75
2022/04/16 10:23:03;;;;;;;;;;;;;;;4.23;88.69;97461.91;107408;1269;38807;-75
2022/04/16 10:25:32;;;;;;;;;;;;;;;4.26;88.64;97460.05;107429;1271;36033;-75
2022/04/16 10:28:07;;;;;;;;;;;;;;;4.32;88.75;97462.48;107354;1271;44581;-75
2022/04/16 10:30:39;;;;;;;;;;;;;;;4.36;88.55;97466.17;107393;1271;46364;-75
2022/04/16 10:33:17;;;;;;;;;;;;;;;4.36;88.48;97465.77;107438;1271;38711;-75
2022/04/16 10:35:50;;;;;;;;;;;;;;;4.32;88.29;97471.30;107515;1271;44538;-75
2022/04/16 10:38:24;;;;;;;;;;;;;;;4.29;88.23;97474.15;107447;1271;42211;-76
2022/04/16 10:40:58;;;;;;;;;;;;;;;4.27;88.12;97478.90;107417;1271;51506;-75
2022/04/16 10:43:30;;;;;;;;;;;;;;;4.20;87.84;97475.81;107402;1271;50575;-75
2022/04/16 10:46:01;;;;;;;;;;;;;;;4.12;87.82;97481.94;107423;1271;30145;-75
2022/04/16 10:48:30;;;;;;;;;;;;;;;4.12;88.06;97483.67;107420;1271;53135;-75
2022/04/16 10:50:58;;;;;;;;;;;;;;;4.11;88.20;97487.73;107393;1271;34638;-75
2022/04/16 10:53:30;;;;;;;;;;;;;;;4.06;88.06;97487.52;107389;1271;48748;-75
2022/04/16 10:56:05;;;;;;;;;;;;;;;4.02;88.12;97489.27;107348;1271;37694;-75
2022/04/16 10:58:34;;;;;;;;;;;;;;;4.03;88.21;97498.77;107371;1271;49279;-75
2022/04/16 11:01:08;;;;;;;;;;;;;;;4.05;88.22;97500.23;107373;1271;41479;-75
2022/04/16 11:03:45;;;;;;;;;;;;;;;4.07;88.31;97499.48;107411;1271;43737;-75
2022/04/16 11:06:13;;;;;;;;;;;;;;;4.08;88.29;97503.00;107502;1271;57063;-75
2022/04/16 11:08:41;;;;;;;;;;;;;;;4.10;88.20;97504.70;107486;1271;35484;-75
2022/04/16 11:11:10;;;;;;;;;;;;;;;4.13;88.08;97510.95;107456;1271;56157;-75
2022/04/16 11:13:39;;;;;;;;;;;;;;;4.18;88.22;97508.77;107495;1271;45743;-75
2022/04/16 11:16:07;;;;;;;;;;;;;;;4.23;87.95;97511.80;107382;1271;41405;-75
2022/04/16 11:18:38;;;;;;;;;;;;;;;4.30;87.81;97516.06;107408;1271;31769;-75
2022/04/16 11:21:10;;;;;;;;;;;;;;;4.35;87.47;97515.06;107427;1271;44586;-75
2022/04/16 11:23:42;;;;;;;;;;;;;;;4.37;87.16;97518.34;107452;1271;44428;-75
2022/04/16 11:34:32;;;;;;;;;;;;;;;4.15;86.13;97536.49;107453;1270;56471;-75
2022/04/16 11:37:02;;;;;;;;;;;;;;;4.14;86.08;97531.70;107323;1272;48277;-75
2022/04/16 11:39:30;;;;;;;;;;;;;;;4.14;85.92;97536.42;107406;1271;50340;-75
2022/04/16 11:41:59;;;;;;;;;;;;;;;4.14;86.06;97538.15;107409;1271;38402;-75
2022/04/16 11:44:31;;;;;;;;;;;;;;;4.18;86.05;97542.11;107408;1271;34339;-75
2022/04/16 11:47:00;;;;;;;;;;;;;;;4.22;86.02;97543.98;107373;1272;41230;-75
2022/04/16 11:49:28;;;;;;;;;;;;;;;4.21;85.47;97544.75;107554;1271;37043;-75
2022/04/16 11:51:57;;;;;;;;;;;;;;;4.22;85.50;97547.70;107461;1270;48691;-75
2022/04/16 11:54:28;;;;;;;;;;;;;;;4.25;85.24;97545.46;107442;1271;40376;-75
2022/04/16 11:56:57;;;;;;;;;;;;;;;4.23;84.81;97542.77;107672;1270;44708;-75
2022/04/16 11:59:27;;;;;;;;;;;;;;;4.23;84.56;97541.85;107461;1271;59755;-75
2022/04/16 12:02:05;;;;;;;;;;;;;;;4.29;84.79;97545.81;107563;1271;37003;-75
2022/04/16 12:04:35;;;;;;;;;;;;;;;4.36;84.64;97549.92;107488;1271;41011;-75
2022/04/16 12:07:03;;;;;;;;;;;;;;;4.39;84.52;97550.39;107620;1271;39121;-76
2022/04/16 12:09:33;;;;;;;;;;;;;;;4.42;84.26;97550.16;107567;1271;41218;-76
2022/04/16 12:12:03;;;;;;;;;;;;;;;4.42;83.89;97552.73;107542;1273;32462;-75
2022/04/16 12:14:30;;;;;;;;;;;;;;;4.49;84.29;97552.89;107625;1271;41867;-76
2022/04/16 12:16:58;;;;;;;;;;;;;;;4.59;84.12;97547.45;107486;1271;51604;-76
2022/04/16 12:19:29;;;;;;;;;;;;;;;4.66;83.90;97550.22;107423;1271;29982;-75
2022/04/16 12:21:57;;;;;;;;;;;;;;;4.77;83.69;97547.36;107440;1271;39183;-76
2022/04/16 12:24:28;;;;;;;;;;;;;;;4.91;83.81;97550.52;107403;1271;32181;-76
2022/04/16 12:26:56;;;;;;;;;;;;;;;5.09;83.53;97549.08;107367;1271;33476;-76
2022/04/16 12:29:29;;;;;;;;;;;;;;;5.29;83.64;97549.64;107421;1271;54276;-75
2022/04/16 12:31:58;;;;;;;;;;;;;;;5.47;83.06;97541.00;107367;1271;42187;-75
2022/04/16 12:34:26;;;;;;;;;;;;;;;5.70;82.89;97538.31;107400;1271;33970;-75
2022/04/16 12:36:55;;;;;;;;;;;;;;;5.90;82.34;97537.75;107375;1271;33552;-75
2022/04/16 12:39:24;;;;;;;;;;;;;;;6.06;82.70;97539.27;107443;1270;45788;-75
2022/04/16 12:41:51;;;;;;;;;;;;;;;6.25;82.29;97542.00;107396;1271;43676;-76
2022/04/16 12:44:19;;;;;;;;;;;;;;;6.35;81.75;97544.64;107427;1271;37619;-75
2022/04/16 12:46:47;;;;;;;;;;;;;;;6.33;79.99;97542.44;107408;1271;32279;-75
2022/04/16 12:49:17;;;;;;;;;;;;;;;6.25;79.29;97542.56;107416;1271;42291;-75
2022/04/16 12:51:48;;;;;;;;;;;;;;;6.23;79.32;97547.30;107448;1271;29744;-75
2022/04/16 12:54:17;;;;;;;;;;;;;;;6.10;79.10;97547.95;107350;1271;45920;-75
2022/04/16 12:56:46;;;;;;;;;;;;;;;5.90;78.84;97549.05;107527;1270;31974;-75
2022/04/16 12:59:15;;;;;;;;;;;;;;;5.70;79.13;97550.22;107443;1271;34807;-76
2022/04/16 13:01:44;;;;;;;;;;;;;;;5.65;78.95;97552.22;107470;1270;50113;-75
2022/04/16 13:04:11;;;;;;;;;;;;;;;5.63;78.65;97545.81;107432;1272;34133;-75
2022/04/16 13:06:40;;;;;;;;;;;;;;;5.65;79.10;97543.92;107427;1271;43305;-75
2022/04/16 13:09:08;;;;;;;;;;;;;;;5.75;78.98;97546.20;107355;1271;61055;-75
2022/04/16 13:11:38;;;;;;;;;;;;;;;5.89;79.30;97548.98;107419;1270;54180;-76
2022/04/16 13:14:06;;;;;;;;;;;;;;;6.03;79.21;97551.14;107389;1271;37382;-75
2022/04/16 13:16:34;;;;;;;;;;;;;;;6.20;79.32;97547.40;107423;1271;38521;-75